Time;durP1;ratioP1;P1;durP2;ratioP2;P2;SDS_P1;SDS_P2;PMS_P1;PMS_P2;Temp;Humidity;BMP_temperature;BMP_pressure;BME280_temperature;BME280_humidity;BME280_pressure;Samples;Min_cycle;Max_cycle;Signal;HPM_P1;HPM_P2
2021/06/25 00:01:22;;;;;;;15.93;8.45;;;;;;;24.37;100.00;101012.61;1710703;83;21146;-78
2021/06/25 00:03:50;;;;;;;19.70;8.93;;;;;;;24.36;100.00;101008.30;1710311;83;21001;-83
2021/06/25 00:06:17;;;;;;;18.80;8.88;;;;;;;24.33;100.00;101014.80;1710888;82;20985;-80
2021/06/25 00:08:44;;;;;;;15.25;8.65;;;;;;;24.29;100.00;101010.02;1710666;83;21382;-86
2021/06/25 00:11:12;;;;;;;20.72;9.05;;;;;;;24.25;100.00;101008.23;1710550;83;20986;-81
2021/06/25 00:13:39;;;;;;;20.40;8.85;;;;;;;24.22;100.00;101005.44;1710743;83;21137;-80
2021/06/25 00:16:06;;;;;;;16.65;8.38;;;;;;;24.19;100.00;100998.34;1710508;83;21075;-84
2021/06/25 00:18:33;;;;;;;21.42;8.95;;;;;;;24.17;100.00;100995.89;1710785;83;20962;-83
2021/06/25 00:24:58;;;;;;;21.07;9.50;;;;;;;24.15;100.00;100992.58;1711080;83;21560;-81
2021/06/25 00:27:25;;;;;;;22.05;8.73;;;;;;;24.15;100.00;100987.80;1710538;83;21131;-82
2021/06/25 00:29:53;;;;;;;19.82;9.60;;;;;;;24.14;100.00;100987.47;1710897;83;20925;-81
2021/06/25 00:32:20;;;;;;;16.25;8.48;;;;;;;24.13;100.00;100985.32;1710981;83;21560;-82
2021/06/25 00:34:47;;;;;;;22.75;8.70;;;;;;;24.13;100.00;100981.84;1668372;83;21040;-78
2021/06/25 00:37:14;;;;;;;20.45;8.83;;;;;;;24.10;100.00;100975.05;1710972;83;20902;-78
2021/06/25 00:39:41;;;;;;;20.40;9.10;;;;;;;24.08;100.00;100974.91;1710888;83;22009;-84
2021/06/25 00:42:08;;;;;;;22.98;10.23;;;;;;;24.04;100.00;100969.64;1710618;83;21001;-80
2021/06/25 00:44:42;;;;;;;18.50;8.88;;;;;;;24.02;100.00;100972.98;1710775;83;20977;-79
2021/06/25 00:47:09;;;;;;;16.45;9.03;;;;;;;23.99;100.00;100972.84;1710480;83;21570;-84
2021/06/25 00:49:38;;;;;;;18.98;9.40;;;;;;;23.96;100.00;100965.26;1710869;83;20968;-79
2021/06/25 00:52:08;;;;;;;19.95;9.03;;;;;;;23.93;100.00;100965.59;1710831;83;21079;-78
2021/06/25 00:54:35;;;;;;;20.00;8.98;;;;;;;23.92;100.00;100966.62;1680244;83;21020;-80
2021/06/25 00:57:02;;;;;;;20.25;9.03;;;;;;;23.89;100.00;100964.33;1710659;83;20902;-80
2021/06/25 00:59:32;;;;;;;20.43;9.33;;;;;;;23.88;100.00;100961.84;1710694;83;20945;-82
2021/06/25 01:01:59;;;;;;;21.40;9.90;;;;;;;23.86;100.00;100971.31;1681499;83;21024;-80
2021/06/25 01:04:26;;;;;;;16.45;9.13;;;;;;;23.85;100.00;100967.50;1708540;83;21082;-82
2021/06/25 01:06:54;;;;;;;21.45;9.48;;;;;;;23.83;100.00;100970.35;1708357;84;21032;-82
2021/06/25 01:09:21;;;;;;;18.17;8.78;;;;;;;23.79;100.00;100966.90;1708226;84;20961;-81
2021/06/25 01:11:48;;;;;;;23.47;9.48;;;;;;;23.78;100.00;100953.31;1708219;84;21052;-79
2021/06/25 01:14:15;;;;;;;20.43;8.53;;;;;;;23.77;100.00;100955.17;1708375;84;21088;-80
2021/06/25 01:16:42;;;;;;;19.75;9.05;;;;;;;23.78;100.00;100954.64;1688101;84;21286;-78
2021/06/25 01:19:13;;;;;;;21.90;8.60;;;;;;;23.78;100.00;100955.47;1708140;84;22394;-80
2021/06/25 01:21:42;;;;;;;24.40;8.43;;;;;;;23.80;100.00;100961.93;1708402;84;21080;-85
2021/06/25 01:24:09;;;;;;;18.85;8.55;;;;;;;23.81;100.00;100959.58;1708240;84;20974;-80
2021/06/25 01:26:36;;;;;;;21.33;8.30;;;;;;;23.79;100.00;100970.38;1708246;84;21015;-78
2021/06/25 01:29:02;;;;;;;21.90;8.95;;;;;;;23.81;100.00;100971.51;1708357;84;21771;-79
2021/06/25 01:31:30;;;;;;;20.25;8.88;;;;;;;23.79;100.00;100966.41;1708125;84;21076;-77
2021/06/25 01:33:56;;;;;;;18.50;8.70;;;;;;;23.77;100.00;100964.94;1708362;84;21032;-81
2021/06/25 01:36:23;;;;;;;23.35;8.53;;;;;;;23.77;100.00;100963.61;1708614;84;21021;-85
2021/06/25 01:38:50;;;;;;;18.95;8.03;;;;;;;23.76;100.00;100962.78;1708408;84;21024;-82
2021/06/25 01:41:17;;;;;;;28.92;9.25;;;;;;;23.75;100.00;100966.42;1708320;84;21114;-79
2021/06/25 01:43:44;;;;;;;17.40;8.58;;;;;;;23.74;100.00;100966.09;1708295;84;20957;-80
2021/06/25 01:46:12;;;;;;;18.17;8.73;;;;;;;23.74;100.00;100966.63;1708373;84;20942;-79
2021/06/25 01:48:38;;;;;;;19.73;8.75;;;;;;;23.71;100.00;100963.31;1708268;84;21520;-83
2021/06/25 01:51:06;;;;;;;18.40;9.08;;;;;;;23.70;100.00;100954.23;1708356;84;21069;-80
2021/06/25 01:53:33;;;;;;;25.50;9.45;;;;;;;23.71;100.00;100954.53;1708313;84;21115;-81
2021/06/25 01:56:01;;;;;;;18.02;8.83;;;;;;;23.74;100.00;100960.00;1708726;84;20928;-80
2021/06/25 01:58:30;;;;;;;19.48;8.83;;;;;;;23.74;100.00;100952.05;1678310;84;20951;-82
2021/06/25 02:01:11;;;;;;;18.37;9.13;;;;;;;23.74;100.00;100950.20;1711486;82;20915;-82
2021/06/25 02:03:39;;;;;;;16.62;8.55;;;;;;;23.70;100.00;100945.78;1708517;84;20981;-83
2021/06/25 02:06:07;;;;;;;21.00;9.38;;;;;;;23.66;100.00;100943.16;1710752;84;21135;-83
2021/06/25 02:08:34;;;;;;;20.55;9.20;;;;;;;23.66;100.00;100943.66;1711373;83;22537;-86
2021/06/25 02:11:01;;;;;;;18.77;9.55;;;;;;;23.66;100.00;100940.52;1709309;84;21017;-86
2021/06/25 02:13:28;;;;;;;16.27;8.35;;;;;;;23.67;100.00;100950.62;1711127;84;21077;-84
2021/06/25 02:15:55;;;;;;;15.25;9.35;;;;;;;23.66;100.00;100951.61;1710323;84;21136;-84
2021/06/25 02:18:21;;;;;;;20.05;8.65;;;;;;;23.67;100.00;100953.27;1709117;84;21809;-82
2021/06/25 02:20:48;;;;;;;18.48;9.30;;;;;;;23.62;100.00;100950.31;1707884;84;20957;-82
2021/06/25 02:23:15;;;;;;;27.40;10.20;;;;;;;23.60;100.00;100944.38;1708257;84;21084;-82
2021/06/25 02:25:42;;;;;;;17.87;9.68;;;;;;;23.56;100.00;100943.08;1708406;84;20957;-83
2021/06/25 02:28:09;;;;;;;16.85;9.40;;;;;;;23.54;100.00;100949.06;1708304;84;21584;-83
2021/06/25 02:30:36;;;;;;;24.85;10.03;;;;;;;23.51;100.00;100944.95;1708168;84;21446;-81
2021/06/25 02:33:04;;;;;;;26.85;9.85;;;;;;;23.50;100.00;100947.77;1708295;84;20993;-86
2021/06/25 02:35:31;;;;;;;20.52;9.45;;;;;;;23.49;100.00;100940.81;1708082;84;21032;-82
2021/06/25 02:37:59;;;;;;;21.82;9.65;;;;;;;23.48;100.00;100943.16;1708156;84;20969;-81
2021/06/25 02:40:25;;;;;;;19.70;8.83;;;;;;;23.49;100.00;100947.43;1708364;84;21056;-85
2021/06/25 02:42:52;;;;;;;19.12;9.00;;;;;;;23.48;100.00;100947.95;1708396;84;21100;-79
2021/06/25 02:45:20;;;;;;;22.00;10.00;;;;;;;23.48;100.00;100944.48;1708270;84;20937;-80
2021/06/25 02:47:47;;;;;;;19.75;8.78;;;;;;;23.48;100.00;100948.45;1708675;84;21000;-79
2021/06/25 02:50:15;;;;;;;17.32;9.00;;;;;;;23.50;100.00;100950.41;1708418;84;20913;-81
2021/06/25 02:52:41;;;;;;;21.07;8.90;;;;;;;23.51;100.00;100952.07;1708396;84;20941;-79
2021/06/25 02:55:10;;;;;;;21.73;9.80;;;;;;;23.51;100.00;100952.91;1708179;84;21112;-77
2021/06/25 02:57:36;;;;;;;26.42;10.03;;;;;;;23.52;100.00;100947.91;1708204;84;21092;-79
2021/06/25 03:00:05;;;;;;;20.00;8.88;;;;;;;23.51;100.00;100942.80;1708349;84;20878;-80
2021/06/25 03:02:32;;;;;;;21.60;8.88;;;;;;;23.53;100.00;100947.41;1688393;84;20972;-83
2021/06/25 03:04:59;;;;;;;18.20;8.75;;;;;;;23.51;100.00;100945.45;1710388;83;21472;-79
2021/06/25 03:07:26;;;;;;;25.50;9.28;;;;;;;23.52;100.00;100949.23;1710709;83;21107;-79
2021/06/25 03:09:52;;;;;;;25.25;8.58;;;;;;;23.54;100.00;100946.41;1710835;83;21431;-77
2021/06/25 03:12:19;;;;;;;24.00;9.20;;;;;;;23.56;100.00;100950.53;1710860;83;20949;-81
2021/06/25 03:14:46;;;;;;;26.68;9.18;;;;;;;23.59;100.00;100938.74;1711055;83;20993;-83
2021/06/25 03:17:13;;;;;;;21.52;8.73;;;;;;;23.62;100.00;100935.23;1710900;83;20875;-81
2021/06/25 03:19:40;;;;;;;21.15;9.03;;;;;;;23.64;100.00;100936.41;1680721;83;21133;-84
2021/06/25 03:22:07;;;;;;;20.15;9.15;;;;;;;23.62;100.00;100936.56;1711245;83;20957;-82
2021/06/25 03:24:33;;;;;;;25.77;9.93;;;;;;;23.61;100.00;100934.11;1711011;83;20974;-80
2021/06/25 03:27:01;;;;;;;26.95;9.45;;;;;;;23.57;100.00;100936.30;1710811;83;20953;-84
2021/06/25 03:29:28;;;;;;;25.50;10.13;;;;;;;23.56;100.00;100939.94;1710722;83;20922;-81
2021/06/25 03:31:56;;;;;;;25.75;10.35;;;;;;;23.57;100.00;100940.27;1710836;83;21934;-79
2021/06/25 03:34:22;;;;;;;20.25;9.15;;;;;;;23.59;100.00;100941.39;1710811;83;21118;-78
2021/06/25 03:36:50;;;;;;;26.45;9.88;;;;;;;23.60;100.00;100941.73;1710908;83;21023;-83
2021/06/25 03:39:17;;;;;;;22.82;10.08;;;;;;;23.63;100.00;100947.50;1710730;83;21096;-80
2021/06/25 03:41:44;;;;;;;21.15;9.83;;;;;;;23.70;100.00;100959.03;1711118;83;21072;-78
2021/06/25 03:44:12;;;;;;;20.02;10.15;;;;;;;23.78;100.00;100964.74;1710697;83;21190;-79
2021/06/25 03:46:38;;;;;;;25.88;10.18;;;;;;;23.85;100.00;100963.03;1710677;83;21523;-78
2021/06/25 03:49:07;;;;;;;31.85;10.18;;;;;;;23.94;100.00;100965.92;1710700;83;20937;-80
2021/06/25 03:51:34;;;;;;;23.18;11.60;;;;;;;24.02;100.00;100966.36;1710627;83;20917;-75
2021/06/25 03:54:02;;;;;;;23.02;10.23;;;;;;;24.10;100.00;100964.94;1710637;83;21497;-78
2021/06/25 03:56:29;;;;;;;33.53;10.95;;;;;;;24.14;100.00;100976.86;1710762;83;21135;-89
2021/06/25 03:58:56;;;;;;;20.85;9.65;;;;;;;24.21;100.00;100972.48;1710706;83;21516;-76
2021/06/25 04:01:24;;;;;;;24.55;10.18;;;;;;;24.24;100.00;100972.13;1710722;83;21039;-77
2021/06/25 04:03:50;;;;;;;31.07;10.65;;;;;;;24.25;100.00;100968.44;1712270;83;21139;-78
2021/06/25 04:06:17;;;;;;;25.45;12.35;;;;;;;24.30;100.00;100968.73;1720294;83;21052;-75
2021/06/25 04:08:48;;;;;;;24.30;12.58;;;;;;;24.32;100.00;100964.06;1720392;83;21028;-79
2021/06/25 04:11:14;;;;;;;26.48;12.35;;;;;;;24.36;100.00;100973.31;1720148;83;20944;-83
2021/06/25 04:13:41;;;;;;;24.40;11.85;;;;;;;24.38;100.00;100971.28;1720375;83;21044;-84
2021/06/25 04:16:08;;;;;;;22.52;11.60;;;;;;;24.41;100.00;100966.94;1720486;83;20996;-79
2021/06/25 04:18:35;;;;;;;29.10;12.28;;;;;;;24.46;100.00;100966.41;1720349;83;21119;-80
2021/06/25 04:21:02;;;;;;;34.83;12.58;;;;;;;24.52;100.00;100965.66;1720460;83;21090;-76
2021/06/25 04:23:29;;;;;;;26.82;11.43;;;;;;;24.57;100.00;100959.32;1720328;83;20991;-80
2021/06/25 04:25:56;;;;;;;28.62;12.25;;;;;;;24.62;100.00;100959.08;1720325;83;21028;-82
2021/06/25 04:28:23;;;;;;;28.30;11.08;;;;;;;24.67;100.00;100954.52;1720422;83;21091;-81
2021/06/25 04:30:50;;;;;;;26.25;11.55;;;;;;;24.73;100.00;100961.23;1720487;83;20973;-86
2021/06/25 04:33:17;;;;;;;30.37;10.85;;;;;;;24.76;100.00;100955.56;1720420;83;21813;-81
2021/06/25 04:35:44;;;;;;;32.60;12.00;;;;;;;24.82;100.00;100966.48;1720365;83;20925;-77
2021/06/25 04:38:11;;;;;;;33.38;10.58;;;;;;;24.87;100.00;100974.20;1720507;83;20952;-81
2021/06/25 04:40:40;;;;;;;31.90;11.43;;;;;;;24.93;100.00;100979.27;1720284;83;20949;-82
2021/06/25 04:43:08;;;;;;;34.88;11.90;;;;;;;24.99;100.00;100981.17;1721213;83;21000;-83
2021/06/25 04:45:35;;;;;;;34.98;11.63;;;;;;;25.03;100.00;100985.11;1720970;83;21133;-78
2021/06/25 04:48:08;;;;;;;36.70;10.88;;;;;;;25.09;100.00;100983.86;1720854;83;21551;-78
2021/06/25 04:50:35;;;;;;;33.30;11.20;;;;;;;25.15;100.00;100986.26;1720365;83;21040;-80
2021/06/25 04:53:04;;;;;;;45.85;14.07;;;;;;;25.18;100.00;100987.21;1720335;83;20973;-79
2021/06/25 04:55:31;;;;;;;39.35;11.95;;;;;;;25.22;100.00;100985.83;1720125;83;20889;-80
2021/06/25 04:57:58;;;;;;;32.17;12.05;;;;;;;25.28;100.00;100987.73;1720455;83;21084;-79
2021/06/25 05:00:25;;;;;;;32.53;11.80;;;;;;;25.35;100.00;100987.80;1720223;83;20957;-81
2021/06/25 05:02:51;;;;;;;35.40;10.85;;;;;;;25.38;100.00;100988.25;1720243;83;21005;-87
2021/06/25 05:05:18;;;;;;;27.85;9.95;;;;;;;25.42;100.00;100992.18;1716415;83;21000;-87
2021/06/25 05:07:45;;;;;;;39.00;10.88;;;;;;;25.46;100.00;100996.61;1713061;83;21111;-80
2021/06/25 05:10:12;;;;;;;42.05;12.07;;;;;;;25.49;100.00;100997.56;1723146;83;21208;-78
2021/06/25 05:12:39;;;;;;;32.28;10.75;;;;;;;25.53;100.00;100999.66;1713170;83;21040;-83
2021/06/25 05:15:09;;;;;;;30.90;10.23;;;;;;;25.57;100.00;100994.80;1723158;83;21060;-82
2021/06/25 05:17:35;;;;;;;33.05;11.45;;;;;;;25.61;100.00;100995.56;1723028;83;21563;-83
2021/06/25 05:20:05;;;;;;;34.43;10.72;;;;;;;25.66;100.00;100988.33;1713253;83;20866;-79
2021/06/25 05:22:31;;;;;;;27.82;10.18;;;;;;;25.71;100.00;100987.27;1712968;83;22503;-78
2021/06/25 05:24:58;;;;;;;33.75;10.63;;;;;;;25.75;100.00;100987.20;1723208;83;21102;-77
2021/06/25 05:27:29;;;;;;;38.65;10.43;;;;;;;25.79;100.00;100990.60;1713163;83;21025;-86
2021/06/25 05:29:55;;;;;;;30.25;11.18;;;;;;;25.84;100.00;100986.55;1723194;83;21150;-81
2021/06/25 05:32:22;;;;;;;25.77;10.65;;;;;;;25.87;100.00;100991.48;1713165;83;21599;-79
2021/06/25 05:38:48;;;;;;;35.48;10.95;;;;;;;25.96;100.00;100996.97;1712911;83;21008;-82
2021/06/25 05:41:15;;;;;;;28.45;11.18;;;;;;;26.02;100.00;100992.20;1723231;83;20968;-87
2021/06/25 05:43:42;;;;;;;38.30;11.38;;;;;;;26.07;100.00;100989.27;1713254;83;21027;-80
2021/06/25 05:46:10;;;;;;;32.67;11.25;;;;;;;26.13;100.00;100992.48;1723400;83;21139;-81
2021/06/25 05:49:15;;;;;;;32.42;10.65;;;;;;;26.19;100.00;100983.78;1713059;83;21795;-82
2021/06/25 05:51:42;;;;;;;27.17;9.58;;;;;;;26.28;100.00;100983.94;1723208;83;21460;-86
2021/06/25 06:07:18;;;;;;;28.38;10.43;;;;;;;26.66;100.00;100980.85;1710653;83;21340;-84
2021/06/25 06:09:46;;;;;;;29.70;10.20;;;;;;;26.71;100.00;100984.55;1715799;82;21014;-84
2021/06/25 06:12:13;;;;;;;32.65;10.68;;;;;;;26.75;100.00;100982.32;1704670;83;21051;-85
2021/06/25 06:31:10;;;;;;;30.88;10.38;;;;;;;27.05;100.00;100974.89;1685284;85;20959;-85
2021/06/25 06:34:22;;;;;;;24.05;10.15;;;;;;;27.09;100.00;100969.48;1664801;83;20983;-88
2021/06/25 06:36:30;;;;;;;29.52;10.63;;;;;;;27.11;100.00;100977.57;1683376;83;21573;-93
2021/06/25 06:38:58;;;;;;;38.67;10.70;;;;;;;27.15;100.00;100988.14;1687330;85;20939;-81
2021/06/25 06:41:27;;;;;;;30.10;10.08;;;;;;;27.23;100.00;100987.12;1700180;83;21689;-88
2021/06/25 06:43:58;;;;;;;34.67;9.23;;;;;;;27.28;99.49;100986.02;1715559;83;21056;-85
2021/06/25 06:46:30;;;;;;;29.77;9.73;;;;;;;27.31;97.21;100991.73;1618550;86;21656;-92
2021/06/25 06:48:59;;;;;;;27.48;9.55;;;;;;;27.34;94.60;100985.20;1708828;83;21193;-82
2021/06/25 06:51:28;;;;;;;31.90;9.05;;;;;;;27.35;94.83;100990.31;1688670;83;21588;-84
2021/06/25 06:54:02;;;;;;;23.35;8.65;;;;;;;27.40;92.77;100994.23;1621412;87;20920;-80
2021/06/25 06:56:32;;;;;;;25.90;9.18;;;;;;;27.43;91.54;100998.68;1680661;84;21047;-83
2021/06/25 06:59:00;;;;;;;26.48;7.95;;;;;;;27.47;91.18;100999.09;1697046;83;21118;-82
2021/06/25 07:01:31;;;;;;;31.55;9.33;;;;;;;27.49;91.33;101000.53;1703700;83;21140;-83
2021/06/25 07:04:02;;;;;;;26.85;8.30;;;;;;;27.55;90.98;101002.89;1715588;83;20956;-80
2021/06/25 07:06:29;;;;;;;21.77;7.62;;;;;;;27.58;90.61;101002.48;1714651;83;21514;-79
2021/06/25 07:08:57;;;;;;;25.30;8.58;;;;;;;27.61;89.58;101005.56;1712542;83;21582;-87
2021/06/25 07:11:26;;;;;;;30.17;9.50;;;;;;;27.63;89.91;101010.16;1687057;83;21616;-82
2021/06/25 07:13:56;;;;;;;16.15;7.67;;;;;;;27.67;92.54;101009.25;1612607;86;21670;-83
2021/06/25 07:16:23;;;;;;;24.60;7.65;;;;;;;27.70;91.88;101015.00;1683451;84;21046;-89
2021/06/25 07:18:50;;;;;;;19.25;8.03;;;;;;;27.72;89.54;101016.97;1684183;84;20991;-87
2021/06/25 07:21:27;;;;;;;28.73;9.35;;;;;;;27.76;88.83;101022.72;1613702;87;21042;-86
2021/06/25 07:23:54;;;;;;;27.82;9.33;;;;;;;27.76;89.66;101023.52;1652413;84;21554;-84
2021/06/25 07:26:23;;;;;;;28.32;9.55;;;;;;;27.79;90.37;101026.31;1678537;85;21087;-86
2021/06/25 07:28:50;;;;;;;25.82;8.93;;;;;;;27.81;90.59;101026.91;1678434;84;21539;-86
2021/06/25 07:31:21;;;;;;;21.50;7.47;;;;;;;27.85;91.12;101024.98;1678681;84;20961;-84
2021/06/25 07:33:49;;;;;;;26.85;7.58;;;;;;;27.87;88.60;101028.76;1679311;84;21607;-86
2021/06/25 07:36:18;;;;;;;23.00;8.78;;;;;;;27.88;87.89;101027.74;1653207;85;21024;-84
2021/06/25 07:38:46;;;;;;;18.10;8.83;;;;;;;27.91;88.36;101026.50;1678366;84;21282;-82
2021/06/25 07:41:13;;;;;;;23.52;8.93;;;;;;;27.95;87.19;101024.57;1679027;84;20906;-86
2021/06/25 07:43:41;;;;;;;25.05;9.10;;;;;;;28.00;86.78;101028.77;1679196;85;21025;-85
2021/06/25 07:46:09;;;;;;;32.67;8.95;;;;;;;28.02;85.72;101029.37;1652933;85;21199;-89
2021/06/25 07:48:37;;;;;;;27.48;9.23;;;;;;;28.04;86.09;101032.67;1678927;85;21009;-86
2021/06/25 07:51:06;;;;;;;31.15;9.40;;;;;;;28.09;86.60;101035.56;1677855;84;21183;-89
2021/06/25 07:53:32;;;;;;;23.10;8.23;;;;;;;28.14;85.91;101031.77;1679216;84;20977;-83
2021/06/25 07:56:03;;;;;;;27.85;9.03;;;;;;;28.21;85.08;101033.08;1640074;85;21116;-87
2021/06/25 07:58:30;;;;;;;28.77;9.25;;;;;;;28.26;85.67;101035.95;1678330;85;21016;-84
2021/06/25 08:00:59;;;;;;;24.00;8.05;;;;;;;28.30;84.44;101037.19;1640137;85;21108;-90
2021/06/25 08:03:28;;;;;;;20.27;8.48;;;;;;;28.33;82.02;101035.44;1678974;84;21449;-80
2021/06/25 08:05:55;;;;;;;25.95;7.17;;;;;;;28.36;82.34;101037.70;1678693;84;21103;-85
2021/06/25 08:08:22;;;;;;;27.37;7.67;;;;;;;28.34;80.77;101037.89;1678449;84;21103;-87
2021/06/25 08:10:53;;;;;;;20.82;8.75;;;;;;;28.36;80.57;101037.19;1662275;85;21001;-82
2021/06/25 08:13:23;;;;;;;17.77;7.42;;;;;;;28.41;80.51;101039.21;1683665;84;20930;-87
2021/06/25 08:15:50;;;;;;;20.97;7.47;;;;;;;28.46;79.16;101038.09;1687201;83;21339;-82
2021/06/25 08:18:26;;;;;;;21.42;8.53;;;;;;;28.49;79.31;101040.34;1693752;83;21045;-91
2021/06/25 08:20:54;;;;;;;19.00;7.60;;;;;;;28.56;78.46;101038.99;1706199;83;20900;-84
2021/06/25 08:23:21;;;;;;;24.50;7.37;;;;;;;28.64;77.53;101042.76;1715171;83;21866;-81
2021/06/25 08:25:48;;;;;;;19.45;7.15;;;;;;;28.69;78.20;101038.95;1681421;83;21069;-83
2021/06/25 08:28:16;;;;;;;28.20;7.35;;;;;;;28.76;78.85;101040.59;1676357;85;21126;-88
2021/06/25 08:30:43;;;;;;;17.60;6.70;;;;;;;28.86;75.83;101042.81;1686267;85;21121;-83
2021/06/25 08:33:10;;;;;;;14.35;5.60;;;;;;;28.95;73.95;101044.22;1686538;85;21035;-86
2021/06/25 08:35:38;;;;;;;17.85;5.90;;;;;;;28.99;73.85;101041.44;1686518;85;20971;-83
2021/06/25 08:38:05;;;;;;;19.95;5.55;;;;;;;29.06;75.11;101045.41;1669150;85;20911;-84
2021/06/25 08:40:32;;;;;;;17.17;6.42;;;;;;;29.12;76.60;101049.39;1710938;83;21120;-87
2021/06/25 08:43:01;;;;;;;17.98;6.42;;;;;;;29.16;75.92;101049.28;1687051;85;21010;-81
2021/06/25 08:45:29;;;;;;;24.65;7.00;;;;;;;29.19;76.27;101053.38;1689527;83;20994;-81
2021/06/25 08:48:00;;;;;;;20.92;6.00;;;;;;;29.23;75.71;101047.91;1717036;83;21051;-91
2021/06/25 08:50:31;;;;;;;14.18;5.10;;;;;;;29.26;76.25;101046.97;1709759;83;20914;-85
2021/06/25 08:52:59;;;;;;;18.23;5.50;;;;;;;29.33;74.94;101047.76;1686643;85;21125;-83
2021/06/25 08:56:13;;;;;;;16.07;5.60;;;;;;;29.37;72.76;101046.82;1693417;83;20931;-93
2021/06/25 08:58:32;;;;;;;15.65;5.28;;;;;;;29.40;73.58;101053.08;1681878;85;21134;-88
2021/06/25 09:01:00;;;;;;;19.42;4.72;;;;;;;29.50;74.14;101049.93;1685491;85;21067;-86
2021/06/25 09:03:29;;;;;;;15.40;5.22;;;;;;;29.52;72.69;101045.17;1685595;85;21134;-83
2021/06/25 09:06:13;;;;;;;13.08;4.70;;;;;;;29.53;71.23;101044.97;1685854;84;21585;-83
2021/06/25 09:08:42;;;;;;;13.85;4.78;;;;;;;29.59;70.13;101048.12;1685431;83;21539;-85
2021/06/25 09:11:30;;;;;;;11.33;4.30;;;;;;;29.64;70.64;101042.95;1696399;84;20958;-85
2021/06/25 09:14:06;;;;;;;26.23;5.37;;;;;;;29.68;69.73;101040.64;1696442;84;21093;-83
2021/06/25 09:16:31;;;;;;;17.52;5.53;;;;;;;29.76;70.26;101041.73;1694387;84;20974;-81
2021/06/25 09:19:03;;;;;;;15.30;4.90;;;;;;;29.82;68.60;101035.50;1696394;83;21120;-83
2021/06/25 09:21:39;;;;;;;15.00;5.15;;;;;;;29.85;68.52;101035.10;1694520;84;21518;-94
2021/06/25 09:24:25;;;;;;;16.57;5.15;;;;;;;29.83;68.82;101030.50;1662858;84;21065;-83
2021/06/25 09:27:07;;;;;;;19.57;6.05;;;;;;;29.85;70.56;101034.59;1696213;84;21066;-81
2021/06/25 09:29:37;;;;;;;10.72;6.28;;;;;;;29.90;70.66;101035.25;1696120;84;20903;-86
2021/06/25 09:32:07;;;;;;;12.75;4.58;;;;;;;30.00;70.10;101038.26;1695973;84;20989;-79
2021/06/25 09:34:45;;;;;;;13.83;4.40;;;;;;;30.07;67.10;101029.66;1696542;84;21464;-90
2021/06/25 09:37:16;;;;;;;18.60;5.55;;;;;;;30.14;66.32;101035.78;1696125;84;21019;-86
2021/06/25 09:40:03;;;;;;;19.98;5.40;;;;;;;30.19;64.55;101035.09;1696359;84;21553;-88
2021/06/25 09:42:39;;;;;;;15.00;4.83;;;;;;;30.21;66.33;101036.54;1695838;84;20919;-82
2021/06/25 09:45:16;;;;;;;21.27;5.28;;;;;;;30.23;65.95;101034.45;1668393;84;21145;-86
2021/06/25 09:47:53;;;;;;;15.03;5.20;;;;;;;30.31;66.30;101034.70;1696175;84;21501;-81
2021/06/25 09:50:32;;;;;;;11.15;4.55;;;;;;;30.39;65.95;101033.05;1696542;84;21112;-82
2021/06/25 09:53:04;;;;;;;13.40;4.37;;;;;;;30.45;64.48;101028.18;1696472;84;21561;-84
2021/06/25 09:55:55;;;;;;;11.15;4.28;;;;;;;30.41;63.33;101026.46;1696563;84;21599;-84
2021/06/25 09:58:44;;;;;;;13.85;4.58;;;;;;;30.42;64.43;101025.43;1666610;84;40236;-82
2021/06/25 10:03:57;;;;;;;11.48;4.15;;;;;;;30.72;63.06;101025.52;1696217;84;20990;-83
2021/06/25 10:06:30;;;;;;;10.98;4.15;;;;;;;31.32;61.08;101017.02;1666897;84;21524;-83
2021/06/25 10:08:57;;;;;;;12.55;4.58;;;;;;;31.54;60.32;101014.65;1696117;84;21549;-86
2021/06/25 10:11:27;;;;;;;15.50;4.55;;;;;;;31.60;59.21;101015.06;1683982;85;21153;-79
2021/06/25 10:14:01;;;;;;;12.95;3.87;;;;;;;31.63;57.52;101009.76;1684275;85;20940;-90
2021/06/25 10:16:28;;;;;;;7.10;3.60;;;;;;;31.64;54.67;101011.41;1684280;85;20975;-82
2021/06/25 10:18:59;;;;;;;9.10;3.77;;;;;;;31.67;53.43;101012.28;1684204;85;21030;-83
2021/06/25 10:21:35;;;;;;;11.08;3.12;;;;;;;31.67;52.29;101006.39;1683204;85;21074;-87
2021/06/25 10:24:04;;;;;;;9.38;3.58;;;;;;;31.62;53.83;101000.92;1683954;85;21344;-86
2021/06/25 10:26:32;;;;;;;14.20;4.00;;;;;;;31.59;53.51;101003.23;1683941;84;21565;-83
2021/06/25 10:29:02;;;;;;;15.68;3.83;;;;;;;31.56;52.66;101004.49;1684127;85;21115;-87
2021/06/25 10:31:31;;;;;;;15.00;4.00;;;;;;;31.56;53.76;101004.49;1683985;85;21091;-79
2021/06/25 10:34:01;;;;;;;9.63;4.30;;;;;;;31.58;53.69;100998.91;1684241;85;21592;-90
2021/06/25 10:36:35;;;;;;;11.53;4.03;;;;;;;31.61;53.07;101001.12;1684003;85;21153;-81
2021/06/25 10:39:08;;;;;;;11.25;3.45;;;;;;;31.65;53.35;100990.23;1683956;85;21011;-84
2021/06/25 10:41:56;;;;;;;13.48;3.35;;;;;;;31.67;51.78;100999.69;1684314;84;20955;-81
2021/06/25 10:44:46;;;;;;;9.50;3.58;;;;;;;31.67;50.83;100996.18;1684192;85;21010;-77
2021/06/25 10:47:34;;;;;;;11.45;3.40;;;;;;;31.67;51.24;101003.71;1684650;85;21454;-86
2021/06/25 10:50:09;;;;;;;12.85;4.25;;;;;;;31.74;51.60;100997.72;1684193;84;21502;-84
2021/06/25 10:52:40;;;;;;;13.48;4.40;;;;;;;31.71;51.87;100999.52;1684439;85;21543;-83
2021/06/25 10:55:13;;;;;;;7.70;3.98;;;;;;;31.71;51.60;101001.38;1684121;85;21172;-78
2021/06/25 10:57:55;;;;;;;9.30;2.92;;;;;;;31.73;50.53;100999.28;1683800;85;21846;-83
2021/06/25 11:00:41;;;;;;;11.78;3.90;;;;;;;31.72;49.11;100998.45;1683685;85;21526;-80
2021/06/25 11:03:30;;;;;;;6.83;3.17;;;;;;;31.71;50.31;100996.84;1683883;85;21150;-84
2021/06/25 11:05:57;;;;;;;14.65;3.75;;;;;;;31.71;51.60;100995.50;1683782;85;21588;-83
2021/06/25 11:08:23;;;;;;;9.75;3.60;;;;;;;31.69;52.14;101000.78;1683905;84;20979;-79
2021/06/25 11:10:55;;;;;;;10.10;3.50;;;;;;;31.66;51.33;100997.22;1683061;85;21079;-81
2021/06/25 11:13:25;;;;;;;9.28;3.45;;;;;;;31.66;51.69;100998.05;1683983;85;21071;-85
2021/06/25 11:16:04;;;;;;;13.58;3.47;;;;;;;31.65;51.13;101000.45;1683987;85;21137;-79
2021/06/25 11:18:32;;;;;;;14.47;4.30;;;;;;;31.70;50.73;100999.22;1683540;85;21010;-80
2021/06/25 11:21:06;;;;;;;11.88;3.70;;;;;;;31.81;51.28;100998.95;1683178;85;20999;-82
2021/06/25 11:23:42;;;;;;;16.17;4.30;;;;;;;32.29;50.78;100995.50;1683532;84;21592;-77
2021/06/25 11:26:24;;;;;;;12.47;3.80;;;;;;;32.94;49.17;100997.94;1683948;85;21138;-81
2021/06/25 11:28:54;;;;;;;8.70;3.33;;;;;;;33.52;48.08;100993.12;1683753;85;21909;-86
2021/06/25 11:31:27;;;;;;;14.83;3.25;;;;;;;33.78;45.84;100990.86;1681464;85;21447;-82
2021/06/25 11:34:01;;;;;;;15.35;3.77;;;;;;;33.74;46.40;100990.53;1683838;85;21015;-82
2021/06/25 11:36:41;;;;;;;13.53;3.77;;;;;;;33.69;46.55;100990.99;1683574;85;21079;-83
2021/06/25 11:39:21;;;;;;;9.48;3.40;;;;;;;33.71;46.36;100982.95;1683946;85;20974;-82
2021/06/25 11:42:08;;;;;;;12.47;3.67;;;;;;;33.68;46.52;100981.27;1684072;85;21505;-77
2021/06/25 11:44:42;;;;;;;8.65;3.30;;;;;;;33.98;45.91;100985.79;1683526;85;21538;-81
2021/06/25 11:47:17;;;;;;;9.40;3.12;;;;;;;34.08;43.57;100989.16;1683562;84;21368;-83
2021/06/25 11:50:02;;;;;;;9.40;3.00;;;;;;;33.77;43.83;100985.19;1683779;85;21015;-76
2021/06/25 11:52:34;;;;;;;10.68;3.50;;;;;;;33.52;42.80;100990.42;1683802;85;20963;-84
2021/06/25 11:55:11;;;;;;;8.38;3.35;;;;;;;33.48;42.21;100995.18;1683305;85;21903;-79
2021/06/25 11:57:41;;;;;;;9.25;3.33;;;;;;;33.80;43.07;100985.51;1683934;85;20959;-87
2021/06/25 12:00:20;;;;;;;13.88;4.55;;;;;;;33.87;42.20;100984.81;1683587;85;21043;-82
2021/06/25 12:02:53;;;;;;;6.67;3.45;;;;;;;33.62;41.88;100984.95;1657540;85;21039;-78
2021/06/25 12:05:29;;;;;;;;;;;;;;;33.49;42.04;100984.72;1686392;85;21588;-82